createdAt,value
2016-08-03T00:00:40.037Z,91.63
2016-08-03T00:01:39.338Z,91.63
2016-08-03T00:02:39.947Z,91.72
2016-08-03T00:03:39.342Z,91.63
2016-08-03T00:04:39.339Z,91.72
2016-08-03T00:05:39.785Z,91.53
2016-08-03T00:06:39.331Z,91.72
2016-08-03T00:07:39.327Z,91.63
2016-08-03T00:08:39.327Z,91.82
2016-08-03T00:09:39.324Z,92.01
2016-08-03T00:10:55.615Z,92.01
2016-08-03T00:11:39.320Z,92.3
2016-08-03T00:12:39.814Z,92.3
2016-08-03T00:14:39.327Z,92.01
2016-08-03T00:15:39.315Z,91.96
2016-08-03T00:16:39.313Z,92.73
2016-08-03T00:17:39.310Z,92.54
2016-08-03T00:18:39.307Z,92.54
2016-08-03T00:19:39.308Z,92.63
2016-08-03T00:20:39.305Z,92.73
2016-08-03T00:21:39.299Z,92.73
2016-08-03T00:22:39.300Z,92.63
2016-08-03T00:23:39.303Z,92.63
2016-08-03T00:24:39.293Z,92.63
2016-08-03T00:25:39.315Z,93.11
2016-08-03T00:26:39.289Z,92.92
2016-08-03T00:27:39.286Z,92.92
2016-08-03T00:29:39.283Z,92.54
2016-08-03T00:30:39.279Z,92.73
2016-08-03T00:31:39.282Z,92.73
2016-08-03T00:32:39.281Z,92.63
2016-08-03T00:33:39.274Z,92.92
2016-08-03T00:34:39.275Z,92.82
2016-08-03T00:35:39.271Z,93.02
2016-08-03T00:36:39.264Z,93.3
2016-08-03T00:37:39.261Z,93.4
2016-08-03T00:38:39.263Z,92.92
2016-08-03T00:39:39.260Z,93.49
2016-08-03T00:40:39.260Z,93.59
2016-08-03T00:41:39.259Z,93.4
2016-08-03T00:42:40.307Z,93.49
2016-08-03T00:44:39.246Z,93.4
2016-08-03T00:45:39.244Z,93.4
2016-08-03T00:46:39.243Z,93.21
2016-08-03T00:47:39.787Z,93.16
2016-08-03T00:48:39.235Z,93.16
2016-08-03T00:49:39.239Z,93.3
2016-08-03T00:50:39.237Z,93.26
2016-08-03T00:51:39.781Z,93.64
2016-08-03T00:52:39.235Z,93.54
2016-08-03T00:53:39.224Z,93.83
2016-08-03T00:54:39.226Z,93.93
2016-08-03T00:55:39.419Z,93.83
2016-08-03T00:56:39.216Z,93.93
2016-08-03T00:57:39.465Z,93.93
2016-08-03T00:59:39.212Z,94.17
2016-08-03T01:00:39.207Z,94.45
2016-08-03T01:01:39.210Z,93.98
2016-08-03T01:02:39.206Z,94.65
2016-08-03T01:03:39.206Z,94.65
2016-08-03T01:04:39.197Z,94.26
2016-08-03T01:05:39.197Z,94.36
2016-08-03T01:06:39.191Z,94.74
2016-08-03T01:07:39.189Z,94.93
2016-08-03T01:08:39.190Z,94.93
2016-08-03T01:09:39.183Z,94.98
2016-08-03T01:10:39.182Z,95.17
2016-08-03T01:11:39.184Z,94.79
2016-08-03T01:12:39.176Z,95.17
2016-08-03T01:13:39.176Z,95.36
2016-08-03T01:14:39.177Z,95.27
2016-08-03T01:15:39.167Z,95.07
2016-08-03T01:16:39.165Z,94.7
2016-08-03T01:17:39.161Z,95.65
2016-08-03T01:18:39.164Z,95.56
2016-08-03T01:19:40.539Z,95.46
2016-08-03T01:21:39.977Z,95.75
2016-08-03T01:22:40.523Z,96.13
2016-08-03T01:23:40.094Z,95.75
2016-08-03T01:24:39.260Z,95.98
2016-08-03T01:30:40.232Z,95.98
2016-08-03T01:31:39.307Z,96.27
2016-08-03T01:32:39.114Z,96.75
2016-08-03T01:33:39.111Z,96.47
2016-08-03T01:34:39.111Z,96.66
2016-08-03T01:35:39.107Z,96.94
2016-08-03T01:36:39.102Z,96.84
2016-08-03T01:37:39.098Z,96.66
2016-08-03T01:38:39.097Z,96.75
2016-08-03T01:39:39.099Z,96.56
2016-08-03T01:40:39.096Z,96.84
2016-08-03T01:41:39.089Z,96.66
2016-08-03T01:42:39.084Z,97.13
2016-08-03T01:43:39.084Z,97.33
2016-08-03T01:44:39.076Z,97.33
2016-08-03T01:45:39.075Z,97.23
2016-08-03T01:46:39.068Z,97.42
2016-08-03T01:47:39.066Z,97.52
2016-08-03T01:48:39.070Z,97.52
2016-08-03T01:49:39.065Z,97.33
2016-08-03T01:50:39.063Z,97.13
2016-08-03T01:51:39.056Z,97.9
2016-08-03T01:52:39.050Z,97.71
2016-08-03T01:53:39.044Z,97.52
2016-08-03T01:54:39.045Z,97.61
2016-08-03T01:55:39.041Z,97.42
2016-08-03T01:56:39.038Z,97.42
2016-08-03T01:57:39.037Z,97.71
2016-08-03T01:58:39.034Z,97.99
2016-08-03T01:59:39.025Z,97.71
2016-08-03T02:01:40.177Z,97.8
2016-08-03T02:02:39.866Z,97.9
2016-08-03T02:03:39.014Z,97.9
2016-08-03T02:04:39.008Z,97.52
2016-08-03T02:05:39.006Z,97.71
2016-08-03T02:06:39.299Z,98.28
2016-08-03T02:07:39.008Z,98.28
2016-08-03T02:08:38.999Z,98.18
2016-08-03T02:09:38.998Z,98.47
2016-08-03T02:10:39.594Z,98.66
2016-08-03T02:11:39.537Z,98.33
2016-08-03T02:12:39.082Z,98.57
2016-08-03T02:13:39.185Z,98.57
2016-08-03T02:14:39.176Z,98.38
2016-08-03T02:15:38.970Z,98.57
2016-08-03T02:16:39.175Z,97.99
2016-08-03T02:17:38.967Z,97.9
2016-08-03T02:18:38.966Z,98.28
2016-08-03T02:19:38.966Z,98.28
2016-08-03T02:20:38.958Z,98.28
2016-08-03T02:21:38.959Z,98.38
2016-08-03T02:22:38.945Z,98.28
2016-08-03T02:23:38.944Z,98.38
2016-08-03T02:24:38.937Z,98.66
2016-08-03T02:25:38.935Z,98.38
2016-08-03T02:26:38.928Z,98.47
2016-08-03T02:27:38.931Z,98.75
2016-08-03T02:28:38.928Z,98.66
2016-08-03T02:29:38.923Z,98.66
2016-08-03T02:30:38.922Z,98.85
2016-08-03T02:31:38.916Z,98.85
2016-08-03T02:32:38.918Z,98.85
2016-08-03T02:33:38.903Z,98.85
2016-08-03T02:34:38.902Z,99.14
2016-08-03T02:35:38.900Z,99.04
2016-08-03T02:36:38.904Z,99.04
2016-08-03T02:37:38.891Z,99.04
2016-08-03T02:38:39.909Z,98.66
2016-08-03T02:39:39.860Z,98.66
2016-08-03T02:40:39.554Z,98.85
2016-08-03T02:41:39.851Z,98.66
2016-08-03T02:42:38.879Z,98.75
2016-08-03T02:43:39.344Z,98.75
2016-08-03T02:44:38.872Z,98.66
2016-08-03T02:45:38.877Z,98.66
2016-08-03T02:46:38.861Z,98.85
2016-08-03T02:47:38.863Z,98.75
2016-08-03T02:48:38.859Z,99.04
2016-08-03T02:49:40.345Z,98.81
2016-08-03T02:50:39.013Z,98.9
2016-08-03T02:51:39.413Z,99.19
2016-08-03T02:52:39.386Z,98.71
2016-08-03T02:53:38.842Z,98.81
2016-08-03T02:54:38.835Z,98.71
2016-08-03T02:55:38.834Z,98.81
2016-08-03T02:56:38.825Z,98.9
2016-08-03T02:57:38.824Z,98.85
2016-08-03T02:58:38.819Z,98.75
2016-08-03T02:59:38.817Z,99.04
2016-08-03T03:00:38.818Z,99.14
2016-08-03T03:01:38.808Z,99.04
2016-08-03T03:02:38.805Z,99.04
2016-08-03T03:03:38.809Z,99.04
2016-08-03T03:04:38.806Z,98.85
2016-08-03T03:05:38.797Z,98.85
2016-08-03T03:06:38.792Z,98.66
2016-08-03T03:07:38.791Z,98.66
2016-08-03T03:08:38.789Z,98.95
2016-08-03T03:09:38.786Z,99.04
2016-08-03T03:10:38.786Z,98.95
2016-08-03T03:11:38.777Z,99.04
2016-08-03T03:12:38.775Z,99.52
2016-08-03T03:13:38.777Z,99.43
2016-08-03T03:14:38.770Z,99.14
2016-08-03T03:15:38.769Z,99.24
2016-08-03T03:16:38.765Z,99.24
2016-08-03T03:17:38.756Z,99.33
2016-08-03T03:18:38.753Z,99.24
2016-08-03T03:19:39.007Z,99.43
2016-08-03T03:20:39.144Z,99.62
2016-08-03T03:21:38.744Z,99.43
2016-08-03T03:22:39.138Z,99.48
2016-08-03T03:23:39.136Z,99.48
2016-08-03T03:24:38.748Z,99.48
2016-08-03T03:25:38.729Z,99.48
2016-08-03T03:26:38.730Z,99.19
2016-08-03T03:27:38.723Z,99.48
2016-08-03T03:28:39.424Z,99.48
2016-08-03T03:29:39.772Z,99.29
2016-08-03T03:30:38.715Z,99
2016-08-03T03:31:39.416Z,99.38
2016-08-03T03:32:38.705Z,99.48
2016-08-03T03:33:38.701Z,99.1
2016-08-03T03:34:38.704Z,99.1
2016-08-03T03:35:38.694Z,99.19
2016-08-03T03:36:38.695Z,99.19
2016-08-03T03:37:38.693Z,98.9
2016-08-03T03:38:38.697Z,99.1
2016-08-03T03:39:38.686Z,98.9
2016-08-03T03:40:38.683Z,98.61
2016-08-03T03:41:38.678Z,98.61
2016-08-03T03:42:38.672Z,99
2016-08-03T03:43:38.671Z,98.71
2016-08-03T03:44:38.668Z,98.81
2016-08-03T03:45:38.668Z,99.1
2016-08-03T03:46:38.661Z,98.9
2016-08-03T03:47:38.659Z,99
2016-08-03T03:48:38.673Z,99
2016-08-03T03:49:38.657Z,98.9
2016-08-03T03:50:38.658Z,99
2016-08-03T03:51:38.645Z,98.9
2016-08-03T03:52:38.655Z,98.81
2016-08-03T03:53:38.646Z,99.19
2016-08-03T03:54:38.636Z,98.9
2016-08-03T03:55:38.635Z,98.81
2016-08-03T03:57:38.627Z,99.1
2016-08-03T03:58:38.627Z,99.15
2016-08-03T03:59:39.805Z,99.05
2016-08-03T04:00:38.618Z,98.9
2016-08-03T04:01:38.617Z,99.05
2016-08-03T04:02:38.609Z,98.86
2016-08-03T04:03:38.835Z,98.86
2016-08-03T04:04:38.606Z,98.76
2016-08-03T04:05:40.280Z,98.86
2016-08-03T04:06:39.580Z,98.66
2016-08-03T04:07:39.123Z,98.76
2016-08-03T04:08:38.696Z,98.81
2016-08-03T04:09:38.603Z,98.91
2016-08-03T04:10:38.595Z,99.34
2016-08-03T04:11:38.592Z,99.05
2016-08-03T04:12:38.586Z,98.57
2016-08-03T04:13:38.586Z,98.52
2016-08-03T04:15:38.582Z,98.67
2016-08-03T04:16:38.574Z,98.14
2016-08-03T04:17:38.579Z,97.66
2016-08-03T04:18:38.573Z,96.94
2016-08-03T04:19:38.573Z,96.32
2016-08-03T04:20:38.568Z,95.4
2016-08-03T04:21:38.573Z,94.64
2016-08-03T04:22:38.571Z,94.21
2016-08-03T04:23:38.572Z,93.19
2016-08-03T04:24:38.569Z,91.89
2016-08-03T04:25:38.575Z,91.51
2016-08-03T04:26:38.572Z,90.59
2016-08-03T04:27:38.572Z,89.39
2016-08-03T04:28:38.582Z,88.23
2016-08-03T04:30:38.576Z,86.63
2016-08-03T04:31:38.581Z,86.29
2016-08-03T04:32:38.587Z,84.79
2016-08-03T04:33:38.580Z,84.31
2016-08-03T04:34:38.582Z,83.29
2016-08-03T04:35:38.580Z,82.13
2016-08-03T04:36:38.587Z,81.59
2016-08-03T04:37:39.240Z,80.53
2016-08-03T04:38:39.646Z,80.43
2016-08-03T04:39:54.014Z,78.89
2016-08-03T04:40:38.850Z,78.69
2016-08-03T04:41:38.604Z,78.11
2016-08-03T04:42:38.603Z,77.44
2016-08-03T04:43:38.606Z,77.25
2016-08-03T04:45:38.615Z,76.63
2016-08-03T04:46:53.536Z,76.82
2016-08-03T04:47:39.524Z,76.2
2016-08-03T04:49:53.544Z,76.55
2016-08-03T04:50:38.631Z,76.45
2016-08-03T04:51:38.883Z,75.97
2016-08-03T04:52:38.689Z,76.17
2016-08-03T04:53:38.642Z,75.74
2016-08-03T04:54:38.643Z,76.61
2016-08-03T04:55:38.644Z,76.61
2016-08-03T04:56:38.646Z,76.51
2016-08-03T04:57:38.643Z,76.71
2016-08-03T04:58:38.650Z,76.76
2016-08-03T04:59:38.655Z,76.67
2016-08-03T05:00:38.666Z,76.86
2016-08-03T05:01:38.654Z,76.67
2016-08-03T05:02:38.655Z,76.67
2016-08-03T05:03:38.663Z,76.67
2016-08-03T05:04:38.665Z,76.92
2016-08-03T05:05:38.660Z,76.73
2016-08-03T05:06:38.663Z,77.01
2016-08-03T05:07:38.665Z,77.08
2016-08-03T05:08:38.662Z,77.08
2016-08-03T05:09:38.671Z,77.75
2016-08-03T05:10:38.668Z,77.23
2016-08-03T05:11:38.664Z,78
2016-08-03T05:12:38.671Z,78
2016-08-03T05:13:38.666Z,77.71
2016-08-03T05:14:40.165Z,78.09
2016-08-03T05:15:40.044Z,78.38
2016-08-03T05:16:40.896Z,78.28
2016-08-03T05:17:38.675Z,78.48
2016-08-03T05:18:38.672Z,78.63
2016-08-03T05:19:38.673Z,78.53
2016-08-03T05:20:38.677Z,79.02
2016-08-03T05:21:38.680Z,79.6
2016-08-03T05:22:38.673Z,79.5
2016-08-03T05:23:38.672Z,79.3
2016-08-03T05:24:39.903Z,79.6
2016-08-03T05:25:38.670Z,79.5
2016-08-03T05:26:39.198Z,79.11
2016-08-03T05:27:39.363Z,79.79
2016-08-03T05:28:38.669Z,80.04
2016-08-03T05:29:38.771Z,80.22
2016-08-03T05:30:38.676Z,80.22
2016-08-03T05:31:38.671Z,80.32
2016-08-03T05:32:38.670Z,80.42
2016-08-03T05:33:38.674Z,80.32
2016-08-03T05:34:38.668Z,80.32
2016-08-03T05:35:38.670Z,80.99
2016-08-03T05:36:38.666Z,80.61
2016-08-03T05:37:38.668Z,81.34
2016-08-03T05:38:38.676Z,81.48
2016-08-03T05:39:38.677Z,81.15
2016-08-03T05:40:38.671Z,81.28
2016-08-03T05:41:38.672Z,81.28
2016-08-03T05:42:38.668Z,81.48
2016-08-03T05:43:38.667Z,81.38
2016-08-03T05:44:38.666Z,81.48
2016-08-03T05:45:38.667Z,81.38
2016-08-03T05:46:38.668Z,81.19
2016-08-03T05:47:38.662Z,81.38
2016-08-03T05:48:38.659Z,81.19
2016-08-03T05:49:38.665Z,81.19
2016-08-03T05:50:38.666Z,80.9
2016-08-03T05:51:38.663Z,81.19
2016-08-03T05:52:38.661Z,81.67
2016-08-03T05:53:38.665Z,81.48
2016-08-03T05:54:38.658Z,81.48
2016-08-03T05:55:39.260Z,81.19
2016-08-03T05:56:38.663Z,80.9
2016-08-03T05:57:39.158Z,81.09
2016-08-03T05:58:39.116Z,80.99
2016-08-03T05:59:38.658Z,80.99
2016-08-03T06:00:38.663Z,81.38
2016-08-03T06:01:38.656Z,81.09
2016-08-03T06:02:38.653Z,80.84
2016-08-03T06:03:38.657Z,81.04
2016-08-03T06:04:39.259Z,81.23
2016-08-03T06:05:38.657Z,80.46
2016-08-03T06:06:39.609Z,80.65
2016-08-03T06:07:38.654Z,80.17
2016-08-03T06:08:38.653Z,80.55
2016-08-03T06:09:38.657Z,80.27
2016-08-03T06:10:38.655Z,80.07
2016-08-03T06:11:38.660Z,80.3
2016-08-03T06:12:38.650Z,80.02
2016-08-03T06:13:38.650Z,80.11
2016-08-03T06:14:38.655Z,79.82
2016-08-03T06:15:38.658Z,79.44
2016-08-03T06:16:38.657Z,79.44
2016-08-03T06:17:38.659Z,79
2016-08-03T06:18:38.663Z,78.71
2016-08-03T06:19:38.650Z,78.71
2016-08-03T06:20:38.651Z,78.61
2016-08-03T06:21:38.653Z,78.42
2016-08-03T06:22:38.659Z,77.69
2016-08-03T06:23:38.653Z,77.69
2016-08-03T06:24:38.655Z,77.11
2016-08-03T06:25:38.660Z,76.67
2016-08-03T06:26:38.660Z,76.18
2016-08-03T06:27:38.660Z,75.71
2016-08-03T06:28:38.664Z,75.23
2016-08-03T06:29:38.668Z,75.26
2016-08-03T06:30:38.671Z,75.26
2016-08-03T06:31:38.667Z,74.4
2016-08-03T06:33:39.885Z,74.88
2016-08-03T06:34:39.119Z,73.91
2016-08-03T06:35:38.672Z,74.3
2016-08-03T06:36:38.678Z,74.05
2016-08-03T06:37:38.680Z,73.66
2016-08-03T06:38:38.684Z,73.37
2016-08-03T06:39:39.056Z,72.92
2016-08-03T06:40:38.690Z,72.06
2016-08-03T06:41:38.693Z,72.25
2016-08-03T06:42:38.696Z,72.44
2016-08-03T06:43:38.709Z,72.25
2016-08-03T06:44:39.640Z,71.96
2016-08-03T06:45:38.702Z,72.06
2016-08-03T06:46:38.707Z,72.34
2016-08-03T06:47:39.232Z,72.34
2016-08-03T06:48:38.713Z,72.25
2016-08-03T06:49:38.707Z,72.34
2016-08-03T06:50:38.712Z,72.06
2016-08-03T06:51:38.715Z,71.92
2016-08-03T06:52:38.723Z,72.12
2016-08-03T06:53:38.722Z,72.25
2016-08-03T06:54:38.729Z,72.12
2016-08-03T06:55:38.731Z,72.12
2016-08-03T06:56:38.741Z,71.83
2016-08-03T06:57:38.741Z,72.15
2016-08-03T06:58:38.787Z,72.25
2016-08-03T06:59:38.738Z,72.34
2016-08-03T07:00:38.747Z,71.96
2016-08-03T07:01:38.745Z,71.86
2016-08-03T07:02:38.746Z,71.48
2016-08-03T07:03:38.753Z,71.19
2016-08-03T07:04:38.758Z,71.67
2016-08-03T07:05:38.756Z,71.19
2016-08-03T07:06:38.760Z,72.06
2016-08-03T07:07:38.765Z,72.06
2016-08-03T07:08:38.766Z,71.58
2016-08-03T07:09:38.768Z,71.28
2016-08-03T07:10:38.774Z,71.86
2016-08-03T07:11:38.774Z,71.83
2016-08-03T07:12:38.780Z,72.41
2016-08-03T07:13:39.981Z,72.21
2016-08-03T07:14:39.985Z,71.92
2016-08-03T07:15:39.093Z,72.02
2016-08-03T07:16:54.005Z,72.12
2016-08-03T07:17:38.788Z,72.12
2016-08-03T07:18:38.793Z,72.02
2016-08-03T07:19:38.794Z,71.73
2016-08-03T07:20:38.793Z,72.02
2016-08-03T07:21:38.802Z,71.83
2016-08-03T07:23:53.723Z,72.21
2016-08-03T07:24:39.356Z,72.12
2016-08-03T07:25:38.808Z,71.83
2016-08-03T07:26:38.810Z,72.12
2016-08-03T07:27:38.824Z,72.31
2016-08-03T07:28:38.822Z,72.21
2016-08-03T07:29:38.821Z,72.12
2016-08-03T07:30:38.822Z,72.31
2016-08-03T07:31:38.825Z,71.96
2016-08-03T07:32:38.826Z,72.25
2016-08-03T07:33:38.833Z,71.51
2016-08-03T07:34:38.836Z,71.12
2016-08-03T07:35:38.843Z,70.94
2016-08-03T07:36:38.841Z,70.64
2016-08-03T07:37:38.840Z,70.36
2016-08-03T07:38:38.843Z,70.1
2016-08-03T07:39:38.846Z,70.39
2016-08-03T07:40:39.544Z,70.58
2016-08-03T07:41:38.853Z,69.62
2016-08-03T07:42:38.856Z,69.81
2016-08-03T07:43:38.867Z,69.71
2016-08-03T07:44:38.870Z,69.42
2016-08-03T07:45:38.872Z,69.52
2016-08-03T07:46:38.868Z,69.32
2016-08-03T07:47:38.879Z,68.98
2016-08-03T07:48:38.878Z,68.49
2016-08-03T07:49:38.920Z,68.4
2016-08-03T07:50:38.888Z,68.43
2016-08-03T07:51:38.894Z,68.43
2016-08-03T07:52:38.895Z,67.88
2016-08-03T07:53:38.901Z,67.49
2016-08-03T07:54:39.267Z,66.72
2016-08-03T07:55:39.658Z,66.66
2016-08-03T07:56:39.483Z,66.75
2016-08-03T07:57:38.913Z,66.27
2016-08-03T07:58:38.927Z,65.79
2016-08-03T07:59:38.928Z,65.59
2016-08-03T08:00:40.451Z,65.75
2016-08-03T08:01:38.934Z,65.75
2016-08-03T08:02:40.204Z,65.56
2016-08-03T08:03:39.312Z,65.66
2016-08-03T08:04:38.947Z,65.69
2016-08-03T08:05:38.958Z,65.79
2016-08-03T08:06:38.958Z,65.3
2016-08-03T08:07:38.959Z,65.3
2016-08-03T08:08:38.965Z,65.5
2016-08-03T08:09:38.971Z,65.2
2016-08-03T08:10:38.973Z,65.2
2016-08-03T08:11:38.981Z,65.3
2016-08-03T08:12:38.979Z,65.75
2016-08-03T08:13:38.989Z,65.66
2016-08-03T08:14:38.988Z,66.3
2016-08-03T08:16:39.001Z,66.4
2016-08-03T08:17:39.002Z,66.88
2016-08-03T08:18:39.013Z,66.5
2016-08-03T08:19:39.010Z,66.98
2016-08-03T08:20:39.016Z,67.24
2016-08-03T08:21:39.021Z,67.24
2016-08-03T08:22:39.024Z,67.04
2016-08-03T08:23:39.026Z,68.1
2016-08-03T08:24:39.035Z,67.72
2016-08-03T08:25:39.034Z,68.07
2016-08-03T08:26:39.042Z,68.36
2016-08-03T08:27:39.044Z,68.17
2016-08-03T08:28:39.050Z,68.17
2016-08-03T08:29:39.053Z,68.36
2016-08-03T08:31:39.059Z,68.26
2016-08-03T08:32:39.611Z,68.26
2016-08-03T08:33:39.466Z,68.36
2016-08-03T08:34:39.081Z,69.04
2016-08-03T08:35:39.170Z,68.36
2016-08-03T08:36:39.074Z,68.65
2016-08-03T08:37:39.076Z,69.04
2016-08-03T08:38:39.079Z,69
2016-08-03T08:39:39.078Z,69.58
2016-08-03T08:40:39.082Z,69.87
2016-08-03T08:41:54.008Z,69.68
2016-08-03T08:42:39.536Z,70.64
2016-08-03T08:43:39.098Z,70.54
2016-08-03T08:45:39.101Z,71
2016-08-03T08:46:39.565Z,70.84
2016-08-03T08:47:39.100Z,70.9
2016-08-03T08:48:39.112Z,70.74
2016-08-03T08:49:39.107Z,71.42
2016-08-03T08:50:39.107Z,71.22
2016-08-03T08:51:39.118Z,71.09
2016-08-03T08:52:39.114Z,70.94
2016-08-03T08:53:39.119Z,71.12
2016-08-03T08:54:39.119Z,70.74
2016-08-03T08:55:39.124Z,70.8
2016-08-03T08:56:39.136Z,70.94
2016-08-03T08:57:39.129Z,71.03
2016-08-03T08:58:39.229Z,71.12
2016-08-03T08:59:39.134Z,71.58
2016-08-03T09:00:39.131Z,71.48
2016-08-03T09:01:39.142Z,71.32
2016-08-03T09:02:39.145Z,71.86
2016-08-03T09:03:39.143Z,71.86
2016-08-03T09:04:39.146Z,71.86
2016-08-03T09:05:39.147Z,71.96
2016-08-03T09:06:39.156Z,72.25
2016-08-03T09:07:39.152Z,72.25
2016-08-03T09:08:39.150Z,72.34
2016-08-03T09:09:39.150Z,71.67
2016-08-03T09:10:40.373Z,71.96
2016-08-03T09:11:39.159Z,71.96
2016-08-03T09:12:39.161Z,71.8
2016-08-03T09:13:39.164Z,72
2016-08-03T09:14:39.164Z,71.86
2016-08-03T09:15:39.168Z,71.96
2016-08-03T09:16:39.170Z,72.06
2016-08-03T09:17:39.170Z,72.19
2016-08-03T09:19:39.338Z,72.19
2016-08-03T09:20:40.260Z,72.09
2016-08-03T09:21:39.182Z,71.9
2016-08-03T09:22:39.189Z,71.9
2016-08-03T09:23:39.183Z,72.09
2016-08-03T09:24:39.180Z,72
2016-08-03T09:25:39.187Z,72.09
2016-08-03T09:26:39.190Z,72.19
2016-08-03T09:27:39.193Z,72.38
2016-08-03T09:28:39.194Z,71.8
2016-08-03T09:29:39.202Z,71.9
2016-08-03T09:30:39.200Z,71.51
2016-08-03T09:31:39.206Z,72.19
2016-08-03T09:32:39.203Z,71.51
2016-08-03T09:33:39.202Z,71.32
2016-08-03T09:34:39.209Z,71.42
2016-08-03T09:35:39.211Z,71.61
2016-08-03T09:36:39.209Z,71.36
2016-08-03T09:37:39.211Z,71.06
2016-08-03T09:38:39.218Z,71.26
2016-08-03T09:39:39.226Z,70.78
2016-08-03T09:40:39.232Z,71.06
2016-08-03T09:41:39.227Z,70.68
2016-08-03T09:42:39.231Z,70.48
2016-08-03T09:43:39.233Z,71.06
2016-08-03T09:44:39.234Z,70.68
2016-08-03T09:45:39.234Z,70.78
2016-08-03T09:46:39.242Z,70.68
2016-08-03T09:47:39.240Z,70.48
2016-08-03T09:48:39.246Z,70.97
2016-08-03T09:49:39.245Z,70.87
2016-08-03T09:50:39.452Z,71.06
2016-08-03T09:51:39.250Z,71.36
2016-08-03T09:52:40.002Z,71.51
2016-08-03T09:53:39.586Z,72
2016-08-03T09:54:39.254Z,72
2016-08-03T09:55:39.257Z,72.19
2016-08-03T09:56:39.469Z,72.67
2016-08-03T09:57:39.268Z,72.38
2016-08-03T09:58:39.319Z,72.19
2016-08-03T10:00:39.270Z,72.48
2016-08-03T10:01:39.275Z,72.58
2016-08-03T10:02:40.129Z,72.03
2016-08-03T10:03:39.430Z,72.22
2016-08-03T10:04:39.434Z,72.28
2016-08-03T10:05:39.285Z,72.32
2016-08-03T10:06:39.286Z,72.22
2016-08-03T10:07:39.290Z,72.32
2016-08-03T10:08:39.290Z,72.42
2016-08-03T10:09:39.301Z,72.03
2016-08-03T10:10:39.300Z,72.13
2016-08-03T10:11:39.300Z,72.13
2016-08-03T10:12:39.309Z,71.58
2016-08-03T10:13:39.311Z,71.48
2016-08-03T10:14:39.314Z,71.3
2016-08-03T10:15:39.310Z,71.26
2016-08-03T10:16:39.314Z,71.1
2016-08-03T10:17:39.316Z,71
2016-08-03T10:18:39.324Z,70.72
2016-08-03T10:19:39.326Z,71
2016-08-03T10:20:39.328Z,70.04
2016-08-03T10:21:39.330Z,70.32
2016-08-03T10:22:39.337Z,70.32
2016-08-03T10:23:39.338Z,70.36
2016-08-03T10:24:39.344Z,69.88
2016-08-03T10:25:39.340Z,70.17
2016-08-03T10:26:39.351Z,69.88
2016-08-03T10:27:39.354Z,69.3
2016-08-03T10:28:41.306Z,69.59
2016-08-03T10:29:39.542Z,69.68
2016-08-03T10:30:39.645Z,69.4
2016-08-03T10:31:39.397Z,69.1
2016-08-03T10:32:39.993Z,69.1
2016-08-03T10:33:39.372Z,68.85
2016-08-03T10:34:39.680Z,68.37
2016-08-03T10:35:39.381Z,68.27
2016-08-03T10:37:39.914Z,67.82
2016-08-03T10:38:39.388Z,68.01
2016-08-03T10:39:39.396Z,67.05
2016-08-03T10:40:39.399Z,66.98
2016-08-03T10:41:40.019Z,66.88
2016-08-03T10:42:39.404Z,66.02
2016-08-03T10:43:39.413Z,66.3
2016-08-03T10:44:39.413Z,65.75
2016-08-03T10:45:39.426Z,65.27
2016-08-03T10:46:39.421Z,64.3
2016-08-03T10:47:39.432Z,64.92
2016-08-03T10:48:39.431Z,64.43
2016-08-03T10:49:39.438Z,64.53
2016-08-03T10:50:39.440Z,64.14
2016-08-03T10:51:39.449Z,63.85
2016-08-03T10:52:39.456Z,63.95
2016-08-03T10:53:39.461Z,63.85
2016-08-03T10:54:39.461Z,63.85
2016-08-03T10:55:39.471Z,63.82
2016-08-03T10:56:39.478Z,63.92
2016-08-03T10:57:39.479Z,64.3
2016-08-03T10:58:39.485Z,64.47
2016-08-03T10:59:39.492Z,65.24
2016-08-03T11:00:39.491Z,64.95
2016-08-03T11:01:39.504Z,65.43
2016-08-03T11:02:39.507Z,65.79
2016-08-03T11:03:39.511Z,65.79
2016-08-03T11:04:39.520Z,66.37
2016-08-03T11:05:39.514Z,66.17
2016-08-03T11:06:39.518Z,66.75
2016-08-03T11:07:39.526Z,67.53
2016-08-03T11:08:39.536Z,67.49
2016-08-03T11:09:39.590Z,67.69
2016-08-03T11:10:39.538Z,67.69
2016-08-03T11:11:39.554Z,67.98
2016-08-03T11:12:39.545Z,67.79
2016-08-03T11:13:39.550Z,67.88
2016-08-03T11:14:39.557Z,68.14
2016-08-03T11:15:39.559Z,68.43
2016-08-03T11:16:39.566Z,68.17
2016-08-03T11:17:40.219Z,68.17
2016-08-03T11:18:40.022Z,68.37
2016-08-03T11:19:39.575Z,68.27
2016-08-03T11:20:39.578Z,67.79
2016-08-03T11:21:39.583Z,67.88
2016-08-03T11:22:39.584Z,68.66
2016-08-03T11:23:39.740Z,68.17
2016-08-03T11:24:39.594Z,68.17
2016-08-03T11:25:39.598Z,68.37
2016-08-03T11:26:39.610Z,68.27
2016-08-03T11:27:39.611Z,68.01
2016-08-03T11:28:39.609Z,67.82
2016-08-03T11:29:39.628Z,67.33
2016-08-03T11:30:39.621Z,67.53
2016-08-03T11:31:39.617Z,67.63
2016-08-03T11:32:39.625Z,67.43
2016-08-03T11:33:39.633Z,67.53
2016-08-03T11:34:40.335Z,66.69
2016-08-03T11:35:39.646Z,66.69
2016-08-03T11:36:39.642Z,66.78
2016-08-03T11:37:39.647Z,66.5
2016-08-03T11:38:39.648Z,66.11
2016-08-03T11:39:39.650Z,66.4
2016-08-03T11:40:39.664Z,66.3
2016-08-03T11:41:39.663Z,66.88
2016-08-03T11:42:39.670Z,66.75
2016-08-03T11:43:39.679Z,67.33
2016-08-03T11:44:39.679Z,67.53
2016-08-03T11:45:39.681Z,67.91
2016-08-03T11:46:41.204Z,67.88
2016-08-03T11:47:40.772Z,67.79
2016-08-03T11:48:39.688Z,68.37
2016-08-03T11:49:39.696Z,68.08
2016-08-03T11:50:39.696Z,68.46
2016-08-03T11:51:39.705Z,67.88
2016-08-03T11:52:39.711Z,68.17
2016-08-03T11:53:39.709Z,68.37
2016-08-03T11:54:41.287Z,69.04
2016-08-03T11:55:40.644Z,68.52
2016-08-03T11:56:40.147Z,68.52
2016-08-03T11:57:39.730Z,68.66
2016-08-03T11:58:39.833Z,68.75
2016-08-03T11:59:39.734Z,68.56
2016-08-03T12:00:40.313Z,69.04
2016-08-03T12:01:39.744Z,68.66
2016-08-03T12:02:39.752Z,69.08
2016-08-03T12:03:39.753Z,68.49
2016-08-03T12:04:39.756Z,69.04
2016-08-03T12:05:39.757Z,68.75
2016-08-03T12:06:39.758Z,68.66
2016-08-03T12:07:39.763Z,68.69
2016-08-03T12:08:39.772Z,68.88
2016-08-03T12:09:39.777Z,68.98
2016-08-03T12:10:39.780Z,68.98
2016-08-03T12:11:39.779Z,68.98
2016-08-03T12:12:39.788Z,69.37
2016-08-03T12:13:39.788Z,69.43
2016-08-03T12:14:39.787Z,69.24
2016-08-03T12:15:39.792Z,69.62
2016-08-03T12:16:39.797Z,69.33
2016-08-03T12:17:39.805Z,69.72
2016-08-03T12:18:39.808Z,69.53
2016-08-03T12:19:39.807Z,69.72
2016-08-03T12:20:39.815Z,70.1
2016-08-03T12:21:40.514Z,70.2
2016-08-03T12:22:39.820Z,69.72
2016-08-03T12:23:39.824Z,69.43
2016-08-03T12:24:39.832Z,69.66
2016-08-03T12:25:39.828Z,69.75
2016-08-03T12:26:39.834Z,69.27
2016-08-03T12:27:40.890Z,69.27
2016-08-03T12:28:39.996Z,69.75
2016-08-03T12:29:54.913Z,69.08
2016-08-03T12:30:39.846Z,69.08
2016-08-03T12:31:40.054Z,69.17
2016-08-03T12:32:39.857Z,69.85
2016-08-03T12:33:39.862Z,70.62
2016-08-03T12:34:39.868Z,70.82
2016-08-03T12:35:39.867Z,71.2
2016-08-03T12:36:41.021Z,71.4
2016-08-03T12:37:55.594Z,71.01
2016-08-03T12:38:40.024Z,71.08
2016-08-03T12:39:39.886Z,71.69
2016-08-03T12:40:39.886Z,72.08
2016-08-03T12:41:40.044Z,72.36
2016-08-03T12:42:39.905Z,72.08
2016-08-03T12:43:39.901Z,72.95
2016-08-03T12:44:39.902Z,72.69
2016-08-03T12:45:39.911Z,72.3
2016-08-03T12:46:39.913Z,71.76
2016-08-03T12:47:39.910Z,71.47
2016-08-03T12:48:39.916Z,70.73
2016-08-03T12:49:39.923Z,69.79
2016-08-03T12:50:39.933Z,68.82
2016-08-03T12:51:39.929Z,68.54
2016-08-03T12:52:39.939Z,68.82
2016-08-03T12:53:39.945Z,68.54
2016-08-03T12:54:39.947Z,68.54
2016-08-03T12:55:39.949Z,68.54
2016-08-03T12:56:39.964Z,68.34
2016-08-03T12:57:39.972Z,68.34
2016-08-03T12:58:40.067Z,68.34
2016-08-03T12:59:39.972Z,68.5
2016-08-03T13:00:39.984Z,68.89
2016-08-03T13:02:39.988Z,68.02
2016-08-03T13:03:39.996Z,68.4
2016-08-03T13:04:41.484Z,68.6
2016-08-03T13:05:41.142Z,67.88
2016-08-03T13:06:40.021Z,68.4
2016-08-03T13:07:40.621Z,68.37
2016-08-03T13:08:40.479Z,68.56
2016-08-03T13:09:40.022Z,68.08
2016-08-03T13:10:40.307Z,67.88
2016-08-03T13:11:40.237Z,68.5
2016-08-03T13:12:40.036Z,67.92
2016-08-03T13:13:41.558Z,67.66
2016-08-03T13:14:40.045Z,67.66
2016-08-03T13:15:40.048Z,66.89
2016-08-03T13:17:40.709Z,66.11
2016-08-03T13:18:40.062Z,66.11
2016-08-03T13:19:40.073Z,66.4
2016-08-03T13:20:40.071Z,66.4
2016-08-03T13:21:40.088Z,66.5
2016-08-03T13:22:40.784Z,66.6
2016-08-03T13:23:40.090Z,66.3